Terminal Aerodrome Forecast
Issued by NWS Rapid City, SD

Home | Current Version | Previous Version | Graphics & Text | Print | Product List | Glossary On
Versions: 1 2 3 4 5 6 7 8 9 10 11 12 13 14 15 16 17 18 19 20
134
FTUS43 KUNR 220520
TAFRAP
TAF
KRAP 220520Z 2206/2306 30008KT P6SM VCSH BKN050 BKN100
     FM220800 31010KT P6SM SCT100
     FM221500 33015G25KT P6SM BKN200
     FM230100 04010KT P6SM BKN040=

USA.gov is the U.S. government's official web portal to all federal, state and local government web resources and services.